sensor_id;sensor_type;location;lat;lon;timestamp;temperature;humidity
41324;DHT22;27073;51.128;4.220;2023-03-30T00:02:26;15.40;99.90
41324;DHT22;27073;51.128;4.220;2023-03-30T00:04:56;15.40;99.90
41324;DHT22;27073;51.128;4.220;2023-03-30T00:07:28;15.50;99.90
41324;DHT22;27073;51.128;4.220;2023-03-30T00:09:55;15.50;99.90
41324;DHT22;27073;51.128;4.220;2023-03-30T00:12:21;15.60;99.90
41324;DHT22;27073;51.128;4.220;2023-03-30T00:14:47;15.50;99.90
41324;DHT22;27073;51.128;4.220;2023-03-30T00:17:14;15.60;99.90
41324;DHT22;27073;51.128;4.220;2023-03-30T00:19:39;15.60;99.90
41324;DHT22;27073;51.128;4.220;2023-03-30T00:22:07;15.60;99.90
41324;DHT22;27073;51.128;4.220;2023-03-30T00:24:36;15.60;99.90
41324;DHT22;27073;51.128;4.220;2023-03-30T00:27:02;15.50;99.90
41324;DHT22;27073;51.128;4.220;2023-03-30T00:29:28;15.40;99.90
41324;DHT22;27073;51.128;4.220;2023-03-30T00:31:54;15.40;99.90
41324;DHT22;27073;51.128;4.220;2023-03-30T00:34:20;15.30;99.90
41324;DHT22;27073;51.128;4.220;2023-03-30T00:36:48;15.40;99.90
41324;DHT22;27073;51.128;4.220;2023-03-30T00:39:18;15.40;99.90
41324;DHT22;27073;51.128;4.220;2023-03-30T00:41:47;15.40;99.90
41324;DHT22;27073;51.128;4.220;2023-03-30T00:47:24;15.40;99.90
41324;DHT22;27073;51.128;4.220;2023-03-30T00:49:50;15.50;99.90
41324;DHT22;27073;51.128;4.220;2023-03-30T00:52:16;15.50;99.90
41324;DHT22;27073;51.128;4.220;2023-03-30T00:54:45;15.50;99.90
41324;DHT22;27073;51.128;4.220;2023-03-30T00:57:11;15.50;99.90
41324;DHT22;27073;51.128;4.220;2023-03-30T00:59:38;15.40;99.90
41324;DHT22;27073;51.128;4.220;2023-03-30T01:02:05;15.20;99.90
41324;DHT22;27073;51.128;4.220;2023-03-30T01:04:31;15.20;99.90
41324;DHT22;27073;51.128;4.220;2023-03-30T01:06:58;15.20;99.90
41324;DHT22;27073;51.128;4.220;2023-03-30T01:09:24;15.00;99.90
41324;DHT22;27073;51.128;4.220;2023-03-30T01:11:50;15.00;99.90
41324;DHT22;27073;51.128;4.220;2023-03-30T01:14:16;15.00;99.90
41324;DHT22;27073;51.128;4.220;2023-03-30T01:17:02;15.00;99.90
41324;DHT22;27073;51.128;4.220;2023-03-30T01:19:45;15.00;99.90
41324;DHT22;27073;51.128;4.220;2023-03-30T01:47:18;14.70;99.90
41324;DHT22;27073;51.128;4.220;2023-03-30T01:52:50;14.70;99.90
41324;DHT22;27073;51.128;4.220;2023-03-30T01:55:24;14.60;99.90
41324;DHT22;27073;51.128;4.220;2023-03-30T01:58:04;14.70;99.90
41324;DHT22;27073;51.128;4.220;2023-03-30T02:00:31;14.80;99.90
41324;DHT22;27073;51.128;4.220;2023-03-30T02:03:23;14.80;99.90
41324;DHT22;27073;51.128;4.220;2023-03-30T02:05:56;14.70;99.90
41324;DHT22;27073;51.128;4.220;2023-03-30T02:08:26;14.90;99.90
41324;DHT22;27073;51.128;4.220;2023-03-30T02:10:56;14.80;99.90
41324;DHT22;27073;51.128;4.220;2023-03-30T02:13:24;14.70;99.90
41324;DHT22;27073;51.128;4.220;2023-03-30T02:16:05;14.60;99.90
41324;DHT22;27073;51.128;4.220;2023-03-30T02:18:31;14.50;1.00
41324;DHT22;27073;51.128;4.220;2023-03-30T02:20:57;14.60;99.90
41324;DHT22;27073;51.128;4.220;2023-03-30T02:23:27;14.80;99.90
41324;DHT22;27073;51.128;4.220;2023-03-30T02:25:55;14.80;99.90
41324;DHT22;27073;51.128;4.220;2023-03-30T02:28:21;14.80;99.90
41324;DHT22;27073;51.128;4.220;2023-03-30T02:30:47;14.80;99.90
41324;DHT22;27073;51.128;4.220;2023-03-30T02:36:39;14.70;99.90
41324;DHT22;27073;51.128;4.220;2023-03-30T02:44:48;14.70;99.90
41324;DHT22;27073;51.128;4.220;2023-03-30T02:47:45;14.80;99.90
41324;DHT22;27073;51.128;4.220;2023-03-30T02:50:17;14.70;99.90
41324;DHT22;27073;51.128;4.220;2023-03-30T02:53:10;14.70;99.90
41324;DHT22;27073;51.128;4.220;2023-03-30T02:59:01;14.60;99.90
41324;DHT22;27073;51.128;4.220;2023-03-30T03:01:36;14.60;99.90
41324;DHT22;27073;51.128;4.220;2023-03-30T03:04:10;14.70;99.90
41324;DHT22;27073;51.128;4.220;2023-03-30T03:06:54;14.60;99.90
41324;DHT22;27073;51.128;4.220;2023-03-30T03:09:21;14.60;99.90
41324;DHT22;27073;51.128;4.220;2023-03-30T03:11:50;14.60;99.90
41324;DHT22;27073;51.128;4.220;2023-03-30T03:14:16;14.60;99.90
41324;DHT22;27073;51.128;4.220;2023-03-30T03:16:44;14.60;99.90
41324;DHT22;27073;51.128;4.220;2023-03-30T03:19:13;14.50;99.90
41324;DHT22;27073;51.128;4.220;2023-03-30T03:21:41;14.60;99.90
41324;DHT22;27073;51.128;4.220;2023-03-30T03:24:07;14.60;99.90
41324;DHT22;27073;51.128;4.220;2023-03-30T03:26:52;14.50;99.90
41324;DHT22;27073;51.128;4.220;2023-03-30T03:29:20;14.50;99.90
41324;DHT22;27073;51.128;4.220;2023-03-30T03:31:45;14.50;99.90
41324;DHT22;27073;51.128;4.220;2023-03-30T03:34:11;14.50;99.90
41324;DHT22;27073;51.128;4.220;2023-03-30T03:36:58;14.50;99.90
41324;DHT22;27073;51.128;4.220;2023-03-30T03:39:26;14.50;99.90
41324;DHT22;27073;51.128;4.220;2023-03-30T03:41:59;14.50;99.90
41324;DHT22;27073;51.128;4.220;2023-03-30T03:44:25;14.50;99.90
41324;DHT22;27073;51.128;4.220;2023-03-30T03:46:50;14.50;1.00
41324;DHT22;27073;51.128;4.220;2023-03-30T03:49:16;14.40;1.00
41324;DHT22;27073;51.128;4.220;2023-03-30T03:51:42;14.40;1.00
41324;DHT22;27073;51.128;4.220;2023-03-30T03:54:07;14.50;1.00
41324;DHT22;27073;51.128;4.220;2023-03-30T03:56:34;14.50;99.90
41324;DHT22;27073;51.128;4.220;2023-03-30T03:58:59;14.50;1.00
41324;DHT22;27073;51.128;4.220;2023-03-30T04:01:28;14.50;1.00
41324;DHT22;27073;51.128;4.220;2023-03-30T04:03:55;14.50;1.00
41324;DHT22;27073;51.128;4.220;2023-03-30T04:06:21;14.30;1.00
41324;DHT22;27073;51.128;4.220;2023-03-30T04:08:46;14.30;1.00
41324;DHT22;27073;51.128;4.220;2023-03-30T04:11:44;14.40;1.00
41324;DHT22;27073;51.128;4.220;2023-03-30T04:14:20;14.50;99.90
41324;DHT22;27073;51.128;4.220;2023-03-30T04:17:06;14.40;1.00
41324;DHT22;27073;51.128;4.220;2023-03-30T04:19:46;14.30;1.00
41324;DHT22;27073;51.128;4.220;2023-03-30T04:22:22;14.20;1.00
41324;DHT22;27073;51.128;4.220;2023-03-30T04:25:11;14.10;1.00
41324;DHT22;27073;51.128;4.220;2023-03-30T04:27:55;14.10;1.00
41324;DHT22;27073;51.128;4.220;2023-03-30T04:30:41;14.10;1.00
41324;DHT22;27073;51.128;4.220;2023-03-30T04:33:42;14.00;1.00
41324;DHT22;27073;51.128;4.220;2023-03-30T04:36:41;13.90;3.40
41324;DHT22;27073;51.128;4.220;2023-03-30T04:39:33;13.90;10.90
41324;DHT22;27073;51.128;4.220;2023-03-30T04:42:17;13.80;17.20
41324;DHT22;27073;51.128;4.220;2023-03-30T04:45:04;13.70;25.10
41324;DHT22;27073;51.128;4.220;2023-03-30T04:47:31;13.80;26.00
41324;DHT22;27073;51.128;4.220;2023-03-30T04:50:20;13.70;31.30
41324;DHT22;27073;51.128;4.220;2023-03-30T04:53:04;13.50;44.70
41324;DHT22;27073;51.128;4.220;2023-03-30T04:55:49;13.40;57.30
41324;DHT22;27073;51.128;4.220;2023-03-30T04:58:33;13.30;65.60
41324;DHT22;27073;51.128;4.220;2023-03-30T05:01:21;13.20;78.00
41324;DHT22;27073;51.128;4.220;2023-03-30T05:03:56;13.10;93.20
41324;DHT22;27073;51.128;4.220;2023-03-30T05:06:35;12.80;99.90
41324;DHT22;27073;51.128;4.220;2023-03-30T05:09:23;12.50;99.90
41324;DHT22;27073;51.128;4.220;2023-03-30T05:12:14;12.40;99.90
41324;DHT22;27073;51.128;4.220;2023-03-30T05:14:55;12.30;99.90
41324;DHT22;27073;51.128;4.220;2023-03-30T05:17:32;12.30;99.90
41324;DHT22;27073;51.128;4.220;2023-03-30T05:20:21;12.40;99.90
41324;DHT22;27073;51.128;4.220;2023-03-30T05:23:05;12.30;99.90
41324;DHT22;27073;51.128;4.220;2023-03-30T05:25:57;12.30;99.90
41324;DHT22;27073;51.128;4.220;2023-03-30T05:28:51;12.30;99.90
41324;DHT22;27073;51.128;4.220;2023-03-30T05:31:19;12.20;99.90
41324;DHT22;27073;51.128;4.220;2023-03-30T05:34:11;12.30;99.90
41324;DHT22;27073;51.128;4.220;2023-03-30T05:36:51;12.30;99.90
41324;DHT22;27073;51.128;4.220;2023-03-30T05:39:40;12.30;99.90
41324;DHT22;27073;51.128;4.220;2023-03-30T05:42:09;12.30;99.90
41324;DHT22;27073;51.128;4.220;2023-03-30T05:44:51;12.30;99.90
41324;DHT22;27073;51.128;4.220;2023-03-30T05:47:36;12.30;99.90
41324;DHT22;27073;51.128;4.220;2023-03-30T05:50:21;12.30;99.90
41324;DHT22;27073;51.128;4.220;2023-03-30T05:52:51;12.30;99.90
41324;DHT22;27073;51.128;4.220;2023-03-30T05:55:44;12.40;99.90
41324;DHT22;27073;51.128;4.220;2023-03-30T05:58:30;12.40;99.90
41324;DHT22;27073;51.128;4.220;2023-03-30T06:01:23;12.40;99.90
41324;DHT22;27073;51.128;4.220;2023-03-30T06:03:51;12.50;99.90
41324;DHT22;27073;51.128;4.220;2023-03-30T06:06:17;12.50;99.90
41324;DHT22;27073;51.128;4.220;2023-03-30T06:08:46;12.50;99.90
41324;DHT22;27073;51.128;4.220;2023-03-30T06:11:18;12.60;99.90
41324;DHT22;27073;51.128;4.220;2023-03-30T06:13:49;12.60;99.90
41324;DHT22;27073;51.128;4.220;2023-03-30T06:16:15;12.50;99.90
41324;DHT22;27073;51.128;4.220;2023-03-30T06:18:42;12.50;99.90
41324;DHT22;27073;51.128;4.220;2023-03-30T06:21:12;12.50;99.90
41324;DHT22;27073;51.128;4.220;2023-03-30T06:23:57;12.50;99.90
41324;DHT22;27073;51.128;4.220;2023-03-30T06:26:26;12.50;99.90
41324;DHT22;27073;51.128;4.220;2023-03-30T06:28:52;12.60;99.90
41324;DHT22;27073;51.128;4.220;2023-03-30T06:31:18;12.60;99.90
41324;DHT22;27073;51.128;4.220;2023-03-30T06:33:49;12.70;99.90
41324;DHT22;27073;51.128;4.220;2023-03-30T06:36:16;12.70;99.90
41324;DHT22;27073;51.128;4.220;2023-03-30T06:38:44;12.70;99.90
41324;DHT22;27073;51.128;4.220;2023-03-30T06:41:10;12.70;99.90
41324;DHT22;27073;51.128;4.220;2023-03-30T06:43:39;12.70;99.90
41324;DHT22;27073;51.128;4.220;2023-03-30T06:46:14;12.80;99.90
41324;DHT22;27073;51.128;4.220;2023-03-30T06:48:44;12.70;99.90
41324;DHT22;27073;51.128;4.220;2023-03-30T06:51:28;12.80;99.90
41324;DHT22;27073;51.128;4.220;2023-03-30T06:53:56;12.80;99.90
41324;DHT22;27073;51.128;4.220;2023-03-30T06:56:22;12.80;99.90
41324;DHT22;27073;51.128;4.220;2023-03-30T06:59:06;12.80;99.90
41324;DHT22;27073;51.128;4.220;2023-03-30T07:01:40;12.80;99.90
41324;DHT22;27073;51.128;4.220;2023-03-30T07:04:38;12.90;99.90
41324;DHT22;27073;51.128;4.220;2023-03-30T07:07:18;12.80;99.90
41324;DHT22;27073;51.128;4.220;2023-03-30T07:09:44;12.90;99.90
41324;DHT22;27073;51.128;4.220;2023-03-30T07:12:10;12.90;99.90
41324;DHT22;27073;51.128;4.220;2023-03-30T07:14:36;12.80;99.90
41324;DHT22;27073;51.128;4.220;2023-03-30T07:17:02;12.80;99.90
41324;DHT22;27073;51.128;4.220;2023-03-30T07:19:27;12.90;99.90
41324;DHT22;27073;51.128;4.220;2023-03-30T07:21:53;12.90;99.90
41324;DHT22;27073;51.128;4.220;2023-03-30T07:24:23;12.90;99.90
41324;DHT22;27073;51.128;4.220;2023-03-30T07:26:48;12.90;99.90
41324;DHT22;27073;51.128;4.220;2023-03-30T07:29:14;12.90;99.90
41324;DHT22;27073;51.128;4.220;2023-03-30T07:31:43;12.90;99.90
41324;DHT22;27073;51.128;4.220;2023-03-30T07:34:11;12.90;99.90
41324;DHT22;27073;51.128;4.220;2023-03-30T07:36:44;12.90;99.90
41324;DHT22;27073;51.128;4.220;2023-03-30T07:39:10;12.90;99.90
41324;DHT22;27073;51.128;4.220;2023-03-30T07:41:39;13.00;99.90
41324;DHT22;27073;51.128;4.220;2023-03-30T07:44:05;12.90;99.90
41324;DHT22;27073;51.128;4.220;2023-03-30T07:46:31;12.90;99.90
41324;DHT22;27073;51.128;4.220;2023-03-30T07:48:57;13.00;99.90
41324;DHT22;27073;51.128;4.220;2023-03-30T07:51:28;13.00;99.90
41324;DHT22;27073;51.128;4.220;2023-03-30T07:54:16;13.00;99.90
41324;DHT22;27073;51.128;4.220;2023-03-30T07:56:57;13.00;99.90
41324;DHT22;27073;51.128;4.220;2023-03-30T07:59:23;13.10;99.90
41324;DHT22;27073;51.128;4.220;2023-03-30T08:01:50;13.10;99.90
41324;DHT22;27073;51.128;4.220;2023-03-30T08:04:37;13.30;99.90
41324;DHT22;27073;51.128;4.220;2023-03-30T08:07:03;13.30;99.90
41324;DHT22;27073;51.128;4.220;2023-03-30T08:09:29;13.30;99.90
41324;DHT22;27073;51.128;4.220;2023-03-30T08:11:56;13.30;99.90
41324;DHT22;27073;51.128;4.220;2023-03-30T08:14:23;13.30;99.90
41324;DHT22;27073;51.128;4.220;2023-03-30T08:16:52;13.30;99.90
41324;DHT22;27073;51.128;4.220;2023-03-30T08:19:19;13.20;99.90
41324;DHT22;27073;51.128;4.220;2023-03-30T08:21:45;13.20;99.90
41324;DHT22;27073;51.128;4.220;2023-03-30T08:24:11;13.10;99.90
41324;DHT22;27073;51.128;4.220;2023-03-30T08:26:37;13.10;99.90
41324;DHT22;27073;51.128;4.220;2023-03-30T08:29:03;13.00;99.90
41324;DHT22;27073;51.128;4.220;2023-03-30T08:31:29;13.20;99.90
41324;DHT22;27073;51.128;4.220;2023-03-30T08:33:59;13.20;99.90
41324;DHT22;27073;51.128;4.220;2023-03-30T08:36:27;13.30;99.90
41324;DHT22;27073;51.128;4.220;2023-03-30T08:38:53;13.40;99.90
41324;DHT22;27073;51.128;4.220;2023-03-30T08:46:42;13.60;99.90
41324;DHT22;27073;51.128;4.220;2023-03-30T08:49:13;13.80;99.90
41324;DHT22;27073;51.128;4.220;2023-03-30T08:51:41;13.80;99.90
41324;DHT22;27073;51.128;4.220;2023-03-30T08:54:14;13.70;99.90
41324;DHT22;27073;51.128;4.220;2023-03-30T08:56:46;13.70;99.40
41324;DHT22;27073;51.128;4.220;2023-03-30T08:59:38;13.70;99.90
41324;DHT22;27073;51.128;4.220;2023-03-30T09:02:19;13.70;99.90
41324;DHT22;27073;51.128;4.220;2023-03-30T09:10:25;13.60;99.90
41324;DHT22;27073;51.128;4.220;2023-03-30T09:12:57;13.50;99.90
41324;DHT22;27073;51.128;4.220;2023-03-30T09:15:26;13.50;99.90
41324;DHT22;27073;51.128;4.220;2023-03-30T09:20:30;13.50;99.90
41324;DHT22;27073;51.128;4.220;2023-03-30T09:23:01;13.60;99.90
41324;DHT22;27073;51.128;4.220;2023-03-30T09:33:57;13.80;99.90
41324;DHT22;27073;51.128;4.220;2023-03-30T09:39:09;13.80;99.90
41324;DHT22;27073;51.128;4.220;2023-03-30T09:41:41;13.90;99.90
41324;DHT22;27073;51.128;4.220;2023-03-30T09:44:26;13.90;99.90
41324;DHT22;27073;51.128;4.220;2023-03-30T09:46:57;14.00;99.90
41324;DHT22;27073;51.128;4.220;2023-03-30T09:49:26;13.90;99.90
41324;DHT22;27073;51.128;4.220;2023-03-30T09:54:20;13.90;99.90
41324;DHT22;27073;51.128;4.220;2023-03-30T09:56:47;14.00;99.90
41324;DHT22;27073;51.128;4.220;2023-03-30T09:59:30;14.00;99.90
41324;DHT22;27073;51.128;4.220;2023-03-30T10:02:09;14.10;99.90
41324;DHT22;27073;51.128;4.220;2023-03-30T10:07:27;13.80;99.90
41324;DHT22;27073;51.128;4.220;2023-03-30T10:09:54;13.70;99.90
41324;DHT22;27073;51.128;4.220;2023-03-30T10:12:24;13.80;99.90
41324;DHT22;27073;51.128;4.220;2023-03-30T10:15:00;13.80;99.90
41324;DHT22;27073;51.128;4.220;2023-03-30T10:17:26;13.80;99.90
41324;DHT22;27073;51.128;4.220;2023-03-30T10:20:23;13.80;99.90
41324;DHT22;27073;51.128;4.220;2023-03-30T10:23:01;13.60;99.90
41324;DHT22;27073;51.128;4.220;2023-03-30T10:25:31;13.60;99.90
41324;DHT22;27073;51.128;4.220;2023-03-30T10:28:02;13.70;99.90
41324;DHT22;27073;51.128;4.220;2023-03-30T10:30:30;13.90;99.90
41324;DHT22;27073;51.128;4.220;2023-03-30T10:32:59;14.10;99.90
41324;DHT22;27073;51.128;4.220;2023-03-30T10:35:36;14.20;99.90
41324;DHT22;27073;51.128;4.220;2023-03-30T10:38:03;14.30;99.90
41324;DHT22;27073;51.128;4.220;2023-03-30T10:40:35;14.30;99.90
41324;DHT22;27073;51.128;4.220;2023-03-30T10:43:03;14.40;95.80
41324;DHT22;27073;51.128;4.220;2023-03-30T10:45:39;14.60;95.00
41324;DHT22;27073;51.128;4.220;2023-03-30T10:53:34;14.50;96.10
41324;DHT22;27073;51.128;4.220;2023-03-30T10:58:56;14.60;94.60
41324;DHT22;27073;51.128;4.220;2023-03-30T11:02:00;14.50;92.80
41324;DHT22;27073;51.128;4.220;2023-03-30T11:04:45;14.50;93.70
41324;DHT22;27073;51.128;4.220;2023-03-30T11:08:36;14.50;92.90
41324;DHT22;27073;51.128;4.220;2023-03-30T11:10:43;14.50;94.10
41324;DHT22;27073;51.128;4.220;2023-03-30T11:18:38;15.10;90.40
41324;DHT22;27073;51.128;4.220;2023-03-30T11:21:18;15.20;84.30
41324;DHT22;27073;51.128;4.220;2023-03-30T11:23:55;15.20;83.60
41324;DHT22;27073;51.128;4.220;2023-03-30T11:26:42;15.00;79.50
41324;DHT22;27073;51.128;4.220;2023-03-30T11:32:15;14.80;84.40
41324;DHT22;27073;51.128;4.220;2023-03-30T11:37:31;15.10;78.80
41324;DHT22;27073;51.128;4.220;2023-03-30T11:40:17;15.00;78.40
41324;DHT22;27073;51.128;4.220;2023-03-30T11:42:45;14.90;73.50
41324;DHT22;27073;51.128;4.220;2023-03-30T11:45:41;14.90;67.30
41324;DHT22;27073;51.128;4.220;2023-03-30T11:48:14;15.00;71.70
41324;DHT22;27073;51.128;4.220;2023-03-30T11:59:16;15.00;73.60
41324;DHT22;27073;51.128;4.220;2023-03-30T12:02:02;15.10;73.70
41324;DHT22;27073;51.128;4.220;2023-03-30T12:04:35;15.20;72.00
41324;DHT22;27073;51.128;4.220;2023-03-30T12:07:10;15.10;72.70
41324;DHT22;27073;51.128;4.220;2023-03-30T12:09:50;15.10;75.60
41324;DHT22;27073;51.128;4.220;2023-03-30T12:12:32;15.30;70.30
41324;DHT22;27073;51.128;4.220;2023-03-30T12:22:56;15.40;58.00
41324;DHT22;27073;51.128;4.220;2023-03-30T12:25:33;15.50;53.00
41324;DHT22;27073;51.128;4.220;2023-03-30T12:28:14;15.80;50.70
41324;DHT22;27073;51.128;4.220;2023-03-30T12:30:59;15.80;49.10
41324;DHT22;27073;51.128;4.220;2023-03-30T12:33:43;16.00;46.50
41324;DHT22;27073;51.128;4.220;2023-03-30T12:36:36;16.10;39.80
41324;DHT22;27073;51.128;4.220;2023-03-30T12:39:07;16.20;40.30
41324;DHT22;27073;51.128;4.220;2023-03-30T12:41:47;16.00;40.40
41324;DHT22;27073;51.128;4.220;2023-03-30T12:44:42;15.90;48.20
41324;DHT22;27073;51.128;4.220;2023-03-30T12:47:52;15.90;49.30
41324;DHT22;27073;51.128;4.220;2023-03-30T12:50:22;15.70;52.20
41324;DHT22;27073;51.128;4.220;2023-03-30T12:58:23;13.20;99.90
41324;DHT22;27073;51.128;4.220;2023-03-30T13:01:03;13.20;99.90
41324;DHT22;27073;51.128;4.220;2023-03-30T13:03:51;13.40;99.90
41324;DHT22;27073;51.128;4.220;2023-03-30T13:06:30;13.70;99.90
41324;DHT22;27073;51.128;4.220;2023-03-30T13:11:43;14.10;99.90
41324;DHT22;27073;51.128;4.220;2023-03-30T13:22:23;14.50;99.90
41324;DHT22;27073;51.128;4.220;2023-03-30T13:24:53;14.70;99.90
41324;DHT22;27073;51.128;4.220;2023-03-30T13:27:24;14.60;99.90
41324;DHT22;27073;51.128;4.220;2023-03-30T13:29:54;14.80;99.90
41324;DHT22;27073;51.128;4.220;2023-03-30T13:35:36;14.90;99.90
41324;DHT22;27073;51.128;4.220;2023-03-30T13:44:27;14.70;99.90
41324;DHT22;27073;51.128;4.220;2023-03-30T13:49:48;15.00;96.30
41324;DHT22;27073;51.128;4.220;2023-03-30T13:52:19;15.00;95.00
41324;DHT22;27073;51.128;4.220;2023-03-30T13:54:48;15.20;94.00
41324;DHT22;27073;51.128;4.220;2023-03-30T13:57:30;15.20;90.50
41324;DHT22;27073;51.128;4.220;2023-03-30T14:00:07;15.20;85.80
41324;DHT22;27073;51.128;4.220;2023-03-30T14:02:39;15.20;85.20
41324;DHT22;27073;51.128;4.220;2023-03-30T14:05:15;15.20;85.20
41324;DHT22;27073;51.128;4.220;2023-03-30T14:07:45;15.30;86.60
41324;DHT22;27073;51.128;4.220;2023-03-30T14:12:40;15.40;86.90
41324;DHT22;27073;51.128;4.220;2023-03-30T14:17:49;15.40;89.60
41324;DHT22;27073;51.128;4.220;2023-03-30T14:23:37;16.10;80.10
41324;DHT22;27073;51.128;4.220;2023-03-30T14:28:44;16.40;66.10
41324;DHT22;27073;51.128;4.220;2023-03-30T14:31:13;16.30;62.20
41324;DHT22;27073;51.128;4.220;2023-03-30T14:33:40;16.20;54.90
41324;DHT22;27073;51.128;4.220;2023-03-30T14:36:06;16.00;45.00
41324;DHT22;27073;51.128;4.220;2023-03-30T14:38:40;15.90;49.80
41324;DHT22;27073;51.128;4.220;2023-03-30T14:41:14;15.90;54.70
41324;DHT22;27073;51.128;4.220;2023-03-30T14:43:50;15.90;55.60
41324;DHT22;27073;51.128;4.220;2023-03-30T14:46:16;16.00;57.40
41324;DHT22;27073;51.128;4.220;2023-03-30T14:48:43;16.00;55.40
41324;DHT22;27073;51.128;4.220;2023-03-30T14:51:25;16.30;60.70
41324;DHT22;27073;51.128;4.220;2023-03-30T14:53:52;17.50;36.10
41324;DHT22;27073;51.128;4.220;2023-03-30T14:56:20;17.50;35.60
41324;DHT22;27073;51.128;4.220;2023-03-30T14:58:48;17.50;37.50
41324;DHT22;27073;51.128;4.220;2023-03-30T15:01:26;16.70;45.70
41324;DHT22;27073;51.128;4.220;2023-03-30T15:04:15;16.40;56.90
41324;DHT22;27073;51.128;4.220;2023-03-30T15:06:42;16.40;61.70
41324;DHT22;27073;51.128;4.220;2023-03-30T15:09:19;16.30;60.70
41324;DHT22;27073;51.128;4.220;2023-03-30T15:11:50;16.00;56.20
41324;DHT22;27073;51.128;4.220;2023-03-30T15:14:20;15.80;59.60
41324;DHT22;27073;51.128;4.220;2023-03-30T15:16:48;16.30;56.70
41324;DHT22;27073;51.128;4.220;2023-03-30T15:19:33;16.40;54.60
41324;DHT22;27073;51.128;4.220;2023-03-30T15:24:43;17.30;40.10
41324;DHT22;27073;51.128;4.220;2023-03-30T15:27:13;17.50;38.00
41324;DHT22;27073;51.128;4.220;2023-03-30T15:29:40;18.20;13.70
41324;DHT22;27073;51.128;4.220;2023-03-30T15:32:16;18.60;1.00
41324;DHT22;27073;51.128;4.220;2023-03-30T15:38:14;18.30;1.00
41324;DHT22;27073;51.128;4.220;2023-03-30T15:40:42;17.40;21.90
41324;DHT22;27073;51.128;4.220;2023-03-30T15:45:40;16.70;43.70
41324;DHT22;27073;51.128;4.220;2023-03-30T15:48:11;16.60;46.00
41324;DHT22;27073;51.128;4.220;2023-03-30T15:50:37;16.50;53.90
41324;DHT22;27073;51.128;4.220;2023-03-30T15:53:04;16.80;46.40
41324;DHT22;27073;51.128;4.220;2023-03-30T15:55:32;16.70;46.90
41324;DHT22;27073;51.128;4.220;2023-03-30T15:57:58;16.50;51.70
41324;DHT22;27073;51.128;4.220;2023-03-30T16:00:27;16.40;56.80
41324;DHT22;27073;51.128;4.220;2023-03-30T16:02:58;17.10;27.80
41324;DHT22;27073;51.128;4.220;2023-03-30T16:05:27;17.20;24.80
41324;DHT22;27073;51.128;4.220;2023-03-30T16:07:54;16.70;32.90
41324;DHT22;27073;51.128;4.220;2023-03-30T16:10:25;17.50;25.90
41324;DHT22;27073;51.128;4.220;2023-03-30T16:12:53;17.90;8.60
41324;DHT22;27073;51.128;4.220;2023-03-30T16:15:21;18.00;11.10
41324;DHT22;27073;51.128;4.220;2023-03-30T16:17:48;17.40;21.30
41324;DHT22;27073;51.128;4.220;2023-03-30T16:20:24;17.30;18.70
41324;DHT22;27073;51.128;4.220;2023-03-30T16:22:51;17.50;18.70
41324;DHT22;27073;51.128;4.220;2023-03-30T16:25:21;17.90;2.80
41324;DHT22;27073;51.128;4.220;2023-03-30T16:27:47;17.80;1.00
41324;DHT22;27073;51.128;4.220;2023-03-30T16:30:34;18.50;1.00
41324;DHT22;27073;51.128;4.220;2023-03-30T16:33:02;18.20;1.00
41324;DHT22;27073;51.128;4.220;2023-03-30T16:35:28;18.30;1.00
41324;DHT22;27073;51.128;4.220;2023-03-30T16:37:54;18.90;1.00
41324;DHT22;27073;51.128;4.220;2023-03-30T16:40:36;18.30;1.00
41324;DHT22;27073;51.128;4.220;2023-03-30T16:43:03;18.00;1.00
41324;DHT22;27073;51.128;4.220;2023-03-30T16:45:30;18.00;1.00
41324;DHT22;27073;51.128;4.220;2023-03-30T16:47:58;17.80;5.30
41324;DHT22;27073;51.128;4.220;2023-03-30T16:53:04;16.50;30.50
41324;DHT22;27073;51.128;4.220;2023-03-30T16:55:30;16.20;35.40
41324;DHT22;27073;51.128;4.220;2023-03-30T16:57:56;16.10;41.10
41324;DHT22;27073;51.128;4.220;2023-03-30T17:00:26;16.00;42.40
41324;DHT22;27073;51.128;4.220;2023-03-30T17:02:52;16.00;39.30
41324;DHT22;27073;51.128;4.220;2023-03-30T17:05:18;15.90;37.10
41324;DHT22;27073;51.128;4.220;2023-03-30T17:07:45;15.80;42.80
41324;DHT22;27073;51.128;4.220;2023-03-30T17:10:28;15.80;43.60
41324;DHT22;27073;51.128;4.220;2023-03-30T17:12:55;15.80;39.70
41324;DHT22;27073;51.128;4.220;2023-03-30T17:15:22;16.00;40.70
41324;DHT22;27073;51.128;4.220;2023-03-30T17:17:49;15.90;40.00
41324;DHT22;27073;51.128;4.220;2023-03-30T17:22:43;16.10;31.90
41324;DHT22;27073;51.128;4.220;2023-03-30T17:25:09;16.50;22.50
41324;DHT22;27073;51.128;4.220;2023-03-30T17:27:35;16.50;18.50
41324;DHT22;27073;51.128;4.220;2023-03-30T17:30:02;16.50;17.30
41324;DHT22;27073;51.128;4.220;2023-03-30T17:32:29;16.50;19.70
41324;DHT22;27073;51.128;4.220;2023-03-30T17:34:54;16.30;21.70
41324;DHT22;27073;51.128;4.220;2023-03-30T17:37:20;16.20;23.30
41324;DHT22;27073;51.128;4.220;2023-03-30T17:39:46;16.00;28.50
41324;DHT22;27073;51.128;4.220;2023-03-30T17:42:12;15.70;35.40
41324;DHT22;27073;51.128;4.220;2023-03-30T17:44:37;15.60;36.10
41324;DHT22;27073;51.128;4.220;2023-03-30T17:47:07;15.40;42.00
41324;DHT22;27073;51.128;4.220;2023-03-30T17:49:33;15.40;45.50
41324;DHT22;27073;51.128;4.220;2023-03-30T17:51:58;15.30;50.50
41324;DHT22;27073;51.128;4.220;2023-03-30T17:54:24;15.10;55.70
41324;DHT22;27073;51.128;4.220;2023-03-30T17:56:50;15.10;57.10
41324;DHT22;27073;51.128;4.220;2023-03-30T17:59:16;15.10;57.20
41324;DHT22;27073;51.128;4.220;2023-03-30T18:01:42;15.10;56.30
41324;DHT22;27073;51.128;4.220;2023-03-30T18:04:07;15.10;57.70
41324;DHT22;27073;51.128;4.220;2023-03-30T18:06:33;15.10;59.10
41324;DHT22;27073;51.128;4.220;2023-03-30T18:08:59;15.00;61.10
41324;DHT22;27073;51.128;4.220;2023-03-30T18:11:25;15.00;60.50
41324;DHT22;27073;51.128;4.220;2023-03-30T18:13:52;15.00;62.00
41324;DHT22;27073;51.128;4.220;2023-03-30T18:16:18;15.00;62.40
41324;DHT22;27073;51.128;4.220;2023-03-30T18:18:47;15.00;63.50
41324;DHT22;27073;51.128;4.220;2023-03-30T18:21:13;15.00;64.80
41324;DHT22;27073;51.128;4.220;2023-03-30T18:23:39;15.00;63.50
41324;DHT22;27073;51.128;4.220;2023-03-30T18:26:04;14.70;70.20
41324;DHT22;27073;51.128;4.220;2023-03-30T18:28:30;14.70;71.00
41324;DHT22;27073;51.128;4.220;2023-03-30T18:30:56;14.60;74.60
41324;DHT22;27073;51.128;4.220;2023-03-30T18:33:23;14.50;74.40
41324;DHT22;27073;51.128;4.220;2023-03-30T18:35:50;14.40;77.60
41324;DHT22;27073;51.128;4.220;2023-03-30T18:38:18;14.40;76.70
41324;DHT22;27073;51.128;4.220;2023-03-30T18:40:46;14.30;77.30
41324;DHT22;27073;51.128;4.220;2023-03-30T18:43:13;14.30;78.20
41324;DHT22;27073;51.128;4.220;2023-03-30T18:45:41;14.20;78.70
41324;DHT22;27073;51.128;4.220;2023-03-30T18:48:11;14.20;79.10
41324;DHT22;27073;51.128;4.220;2023-03-30T18:50:48;14.10;77.20